Flight Track Log - Related Links

Times and Time Zones

All times are in EDT time to prevent confusion due to time zone crossing. See the SWA528 flight status page for this flight to view local times or setup timezone preferences in your user account.


Time Position Orientation Groundspeed Altitude Reporting Facility
EDT Latitude Longitude Course Direction KTS MPH feet Rate Location/Type
Fri 02:28:04 PM 33.9500 -118.4500 261° West 170 196 1,300  Level Southern California TRACON
Fri 02:29:11 PM 33.9383 -118.5411 261° West 242 278 3,400 2,326 Climbing Los Angeles Center
Fri 02:30:13 PM 33.9297 -118.6328 264° West 273 314 6,300 3,194 Climbing Los Angeles Center
Fri 02:31:15 PM 33.9206 -118.7381 264° West 292 336 10,000 2,758 Climbing Los Angeles Center
Fri 02:32:17 PM 33.9119 -118.8453 265° West 338 389 12,000 2,419 Climbing Los Angeles Center
Fri 02:33:19 PM 33.9169 -118.9642 273° West 361 415 15,000 2,736 Climbing Los Angeles Center
Fri 02:34:22 PM 33.9872 -119.0600 312° West 378 435 17,700 2,688 Climbing Los Angeles Center
Fri 02:35:24 PM 34.0611 -119.1600 312° West 399 459 20,600 2,661 Climbing Los Angeles Center
Fri 02:36:26 PM 34.1364 -119.2633 311° West 408 470 23,200 2,468 Climbing Los Angeles Center
Fri 02:37:28 PM 34.2283 -119.3886 312° West 417 480 25,700 2,129 Climbing Los Angeles Center
Fri 02:38:30 PM 34.3092 -119.5003 311° West 437 503 27,600 1,742 Climbing Los Angeles Center
Fri 02:39:32 PM 34.3928 -119.6139 312° West 448 516 29,300 1,742 Climbing Los Angeles Center
Fri 02:40:34 PM 34.4786 -119.7317 311° West 464 534 31,200 2,081 Climbing Los Angeles Center
Fri 02:41:36 PM 34.5678 -119.8403 315° West 453 521 33,600 1,355 Climbing Los Angeles Center
Fri 02:42:38 PM 34.6750 -119.9514 320° Northwest 450 518 34,000 768 Climbing Los Angeles Center
Fri 02:43:41 PM 34.7678 -120.0547 318° Northwest 451 519 35,200 960 Climbing Los Angeles Center
Fri 02:44:43 PM 34.8606 -120.1544 319° Northwest 451 519 36,000 387 Climbing Los Angeles Center
Fri 02:45:45 PM 34.9531 -120.2556 318° Northwest 450 518 36,000  Level Los Angeles Center
Fri 02:46:47 PM 35.0622 -120.3772 318° Northwest 449 517 36,000  Level Los Angeles Center
Fri 02:47:49 PM 35.1542 -120.4789 318° Northwest 449 517 36,000  Level Los Angeles Center
Fri 02:48:51 PM 35.2481 -120.5819 318° Northwest 464 534 36,000  Level Los Angeles Center
Fri 02:49:53 PM 35.3414 -120.6897 317° Northwest 465 535 36,000  Level Los Angeles Center
Fri 02:50:55 PM 35.4361 -120.7947 318° Northwest 462 532 36,000  Level Los Angeles Center
Fri 02:51:57 PM 35.5647 -120.9042 325° Northwest 469 540 36,000  Level Los Angeles Center
Fri 02:53:00 PM 35.6625 -120.9919 324° Northwest 470 541 36,000  Level Los Angeles Center
Fri 02:53:31 PM 35.7239 -121.0478 324° Northwest 465 535 36,000  Level Oakland Center
Fri 02:55:04 PM 35.8958 -121.1978 325° Northwest 469 540 36,000  Level Los Angeles Center
Fri 02:55:34 PM 35.9369 -121.2356 323° Northwest 467 537 36,000 -978 Level Oakland Center
Fri 02:56:36 PM 36.0453 -121.3308 325° Northwest 478 550 34,500 -2,177 Descending Oakland Center
Fri 02:57:38 PM 36.1494 -121.4269 323° Northwest 470 541 31,500 -3,097 Descending Oakland Center
Fri 02:58:40 PM 36.2761 -121.5386 325° Northwest 465 535 28,100 -2,758 Descending Oakland Center
Fri 02:59:42 PM 36.3769 -121.6303 324° Northwest 450 518 25,800 -2,272 Descending Oakland Center
Fri 03:00:23 PM 36.4500 -121.6833 330° Northwest 429 494 24,200 -2,257 Descending Northern Cal TRACON
Fri 03:01:23 PM 36.5500 -121.7833 321° Northwest 418 481 22,000 -1,900 Descending Northern Cal TRACON
Fri 03:02:23 PM 36.6333 -121.8667 321° Northwest 452 520 20,400 -1,800 Descending Northern Cal TRACON
Fri 03:03:23 PM 36.7167 -121.9333 327° Northwest 409 471 18,400 -2,050 Descending Northern Cal TRACON
Fri 03:04:23 PM 36.8167 -121.9833 338° Northwest 374 430 16,300 -2,000 Descending Northern Cal TRACON
Fri 03:05:23 PM 36.9167 -122.0167 345° North 364 419 14,400 -1,846 Descending Northern Cal TRACON
Fri 03:05:54 PM 36.9544 -122.0192 357° North 367 422 13,500 -1,871 Descending Oakland Center
Fri 03:06:56 PM 37.0506 -122.0439 348° North 354 407 11,500 -1,659 Descending Oakland Center
Fri 03:07:57 PM 37.1447 -122.0681 348° North 346 398 10,100 -1,268 Descending Oakland Center
Fri 03:08:59 PM 37.2428 -122.0956 347° North 302 348 8,900 -1,161 Descending Oakland Center
Fri 03:10:01 PM 37.3222 -122.1153 349° North 294 338 7,700 -677 Descending Oakland Center
Fri 03:11:03 PM 37.3844 -122.0972 13° North 232 267 7,500 -677 Descending Oakland Center
Fri 03:12:05 PM 37.4406 -122.1089 351° North 209 241 6,300 -1,161 Descending Oakland Center
Fri 03:13:07 PM 37.4950 -122.1264 346° North 202 232 5,100 -1,268 Descending Oakland Center
Fri 03:14:08 PM 37.5306 -122.1717 315° West 197 227 3,700 -1,366 Descending Oakland Center
Fri 03:15:10 PM 37.5558 -122.2283 299° West 191 220 2,300 -1,306 Descending Oakland Center
Fri 03:16:12 PM 37.5825 -122.2933 297° West 181 208 1,000 -968 Descending Oakland Center
Fri 03:17:14 PM 37.6003 -122.3353 298° West 158 182 300 -677 Descending Oakland Center
Fri 03:20:00 PM 37.6167 -122.3667 322° Northwest  Level FlightAware Approximate

Login

Don't have an account? Register now (free) for customized features, flight alerts, and more!